createdAt,value
2022-12-29T00:00:27.517Z,1.38
2022-12-29T00:03:13.051Z,1.30
2022-12-29T00:05:59.529Z,1.10
2022-12-29T00:08:44.956Z,1.20
2022-12-29T00:11:30.336Z,2.13
2022-12-29T00:14:34.158Z,1.40
2022-12-29T00:17:19.849Z,1.20
2022-12-29T00:20:23.961Z,1.60
2022-12-29T00:23:28.813Z,1.23
2022-12-29T00:26:35.865Z,1.23
2022-12-29T00:29:39.628Z,1.15
2022-12-29T00:32:43.585Z,1.75
2022-12-29T00:35:40.780Z,1.50
2022-12-29T00:38:45.160Z,1.20
2022-12-29T00:41:49.055Z,1.38
2022-12-29T00:44:34.443Z,1.40
2022-12-29T00:47:19.818Z,1.08
2022-12-29T00:50:05.379Z,1.35
2022-12-29T00:52:50.851Z,1.30
2022-12-29T00:55:41.251Z,1.30
2022-12-29T00:58:30.900Z,1.75
2022-12-29T01:01:16.419Z,1.40
2022-12-29T01:04:04.639Z,1.33
2022-12-29T01:06:50.728Z,0.93
2022-12-29T01:09:59.210Z,1.10
2022-12-29T01:12:46.023Z,1.05
2022-12-29T01:15:31.527Z,1.20
2022-12-29T01:18:16.972Z,1.10
2022-12-29T01:21:04.851Z,1.10
2022-12-29T01:23:50.009Z,1.70
2022-12-29T01:26:35.463Z,1.35
2022-12-29T01:29:20.823Z,1.42
2022-12-29T01:32:06.192Z,1.35
2022-12-29T01:34:51.435Z,1.25
2022-12-29T01:37:36.898Z,1.30
2022-12-29T01:40:22.278Z,1.30
2022-12-29T01:43:11.622Z,2.17
2022-12-29T01:45:56.917Z,1.58
2022-12-29T01:48:43.497Z,1.17
2022-12-29T01:51:30.949Z,1.88
2022-12-29T01:54:47.373Z,1.77
2022-12-29T01:57:38.898Z,1.33
2022-12-29T02:00:24.295Z,1.10
2022-12-29T02:03:10.393Z,2.03
2022-12-29T02:06:08.037Z,1.70
2022-12-29T02:08:56.130Z,1.70
2022-12-29T02:11:41.277Z,1.65
2022-12-29T02:14:26.547Z,1.42
2022-12-29T02:17:21.391Z,1.42
2022-12-29T02:20:42.935Z,1.30
2022-12-29T02:23:28.250Z,2.03
2022-12-29T02:26:40.993Z,1.38
2022-12-29T02:29:47.872Z,1.50
2022-12-29T02:32:43.259Z,1.60
2022-12-29T02:35:37.604Z,1.30
2022-12-29T02:38:29.243Z,1.38
2022-12-29T02:41:27.596Z,1.83
2022-12-29T02:44:18.748Z,1.88
2022-12-29T02:47:20.602Z,1.40
2022-12-29T02:50:18.331Z,1.20
2022-12-29T02:53:08.652Z,1.17
2022-12-29T02:55:53.814Z,1.67
2022-12-29T02:58:39.239Z,2.13
2022-12-29T03:02:18.184Z,1.17
2022-12-29T03:05:24.170Z,1.30
2022-12-29T03:08:29.651Z,1.33
2022-12-29T03:11:34.120Z,1.60
2022-12-29T03:14:49.052Z,1.10
2022-12-29T03:17:44.477Z,1.52
2022-12-29T03:20:44.576Z,1.40
2022-12-29T03:23:31.223Z,1.50
2022-12-29T03:26:19.509Z,1.30
2022-12-29T03:29:07.817Z,1.73
2022-12-29T03:31:55.170Z,1.70
2022-12-29T03:34:40.603Z,1.40
2022-12-29T03:37:36.324Z,1.80
2022-12-29T03:40:23.882Z,1.70
2022-12-29T03:43:09.827Z,1.60
2022-12-29T03:45:55.014Z,1.35
2022-12-29T03:48:40.365Z,1.17
2022-12-29T03:51:25.878Z,1.52
2022-12-29T03:54:11.209Z,1.13
2022-12-29T03:56:56.925Z,1.17
2022-12-29T03:59:41.989Z,1.15
2022-12-29T04:02:28.064Z,1.33
2022-12-29T04:05:13.444Z,1.35
2022-12-29T04:07:59.865Z,1.83
2022-12-29T04:10:45.221Z,1.50
2022-12-29T04:13:30.690Z,1.52
2022-12-29T04:16:16.341Z,1.52
2022-12-29T04:19:01.837Z,1.20
2022-12-29T04:21:47.065Z,1.17
2022-12-29T04:24:32.408Z,1.20
2022-12-29T04:27:17.823Z,1.58
2022-12-29T04:30:04.583Z,1.33
2022-12-29T04:32:50.515Z,1.40
2022-12-29T04:35:35.655Z,1.65
2022-12-29T04:38:23.372Z,1.10
2022-12-29T04:41:08.505Z,1.40
2022-12-29T04:43:53.950Z,1.50
2022-12-29T04:46:39.390Z,1.63
2022-12-29T04:49:24.576Z,1.48
2022-12-29T04:52:10.159Z,1.50
2022-12-29T04:54:55.217Z,1.13
2022-12-29T04:57:40.616Z,1.23
2022-12-29T05:00:26.144Z,1.45
2022-12-29T05:03:11.767Z,1.45
2022-12-29T05:05:57.919Z,1.30
2022-12-29T05:08:42.945Z,1.48
2022-12-29T05:11:28.374Z,1.20
2022-12-29T05:14:13.752Z,1.23
2022-12-29T05:16:59.812Z,1.20
2022-12-29T05:19:45.062Z,1.48
2022-12-29T05:22:30.390Z,1.77
2022-12-29T05:25:15.640Z,0.93
2022-12-29T05:28:01.173Z,1.13
2022-12-29T05:30:50.084Z,2.00
2022-12-29T05:33:35.425Z,1.27
2022-12-29T05:36:21.120Z,1.52
2022-12-29T05:39:08.493Z,1.50
2022-12-29T05:41:53.587Z,1.60
2022-12-29T05:44:38.940Z,1.30
2022-12-29T05:47:24.246Z,1.15
2022-12-29T05:50:09.707Z,1.23
2022-12-29T05:52:54.919Z,1.30
2022-12-29T05:55:46.629Z,1.45
2022-12-29T05:58:33.975Z,1.30
2022-12-29T06:01:19.341Z,1.30
2022-12-29T06:04:04.746Z,1.40
2022-12-29T06:06:50.224Z,1.20
2022-12-29T06:09:35.648Z,1.40
2022-12-29T06:12:21.085Z,1.30
2022-12-29T06:15:07.713Z,1.40
2022-12-29T06:17:52.705Z,1.70
2022-12-29T06:20:38.085Z,1.48
2022-12-29T06:23:23.363Z,1.10
2022-12-29T06:26:08.849Z,1.30
2022-12-29T06:28:54.200Z,1.25
2022-12-29T06:31:39.648Z,1.55
2022-12-29T06:34:25.753Z,1.45
2022-12-29T06:37:11.446Z,1.70
2022-12-29T06:39:56.898Z,1.30
2022-12-29T06:42:42.110Z,1.65
2022-12-29T06:45:27.557Z,1.55
2022-12-29T06:48:13.215Z,1.23
2022-12-29T06:50:58.431Z,1.33
2022-12-29T06:53:43.799Z,1.45
2022-12-29T06:56:29.177Z,3.28
2022-12-29T06:59:14.452Z,1.50
2022-12-29T07:01:59.876Z,1.42
2022-12-29T07:04:45.463Z,1.30
2022-12-29T07:07:31.026Z,1.00
2022-12-29T07:10:16.387Z,2.47
2022-12-29T07:13:02.755Z,1.30
2022-12-29T07:15:48.113Z,1.80
2022-12-29T07:18:33.452Z,1.40
2022-12-29T07:21:19.668Z,1.17
2022-12-29T07:24:05.088Z,1.58
2022-12-29T07:26:50.319Z,1.27
2022-12-29T07:29:38.135Z,1.27
2022-12-29T07:32:23.196Z,1.40
2022-12-29T07:35:08.925Z,1.27
2022-12-29T07:37:54.269Z,2.58
2022-12-29T07:40:39.617Z,1.30
2022-12-29T07:43:25.177Z,1.30
2022-12-29T07:46:17.467Z,1.13
2022-12-29T07:49:16.147Z,1.55
2022-12-29T07:52:01.688Z,1.10
2022-12-29T07:54:46.954Z,1.50
2022-12-29T07:57:32.504Z,1.23
2022-12-29T08:00:17.627Z,2.53
2022-12-29T08:03:03.116Z,1.98
2022-12-29T08:05:48.953Z,1.75
2022-12-29T08:08:34.034Z,1.67
2022-12-29T08:11:19.302Z,1.27
2022-12-29T08:14:04.898Z,1.35
2022-12-29T08:16:49.935Z,1.13
2022-12-29T08:19:35.369Z,1.33
2022-12-29T08:22:20.844Z,1.90
2022-12-29T08:25:06.534Z,1.90
2022-12-29T08:27:51.746Z,1.67
2022-12-29T08:30:37.677Z,1.70
2022-12-29T08:33:23.035Z,2.15
2022-12-29T08:36:10.099Z,1.50
2022-12-29T08:38:55.601Z,1.35
2022-12-29T08:41:40.974Z,1.60
2022-12-29T08:44:26.363Z,7.18
2022-12-29T08:47:12.448Z,3.70
2022-12-29T08:49:57.762Z,2.50
2022-12-29T08:52:43.127Z,1.38
2022-12-29T08:55:28.375Z,3.10
2022-12-29T08:58:15.426Z,2.15
2022-12-29T09:01:01.025Z,1.90
2022-12-29T09:06:52.085Z,1.67
2022-12-29T09:09:37.452Z,1.73
2022-12-29T09:12:22.791Z,1.90
2022-12-29T09:15:09.825Z,2.20
2022-12-29T09:17:56.454Z,2.90
2022-12-29T09:20:42.057Z,2.17
2022-12-29T09:23:27.981Z,8.65
2022-12-29T09:26:12.966Z,3.83
2022-12-29T09:28:58.505Z,2.20
2022-12-29T09:31:43.909Z,1.80
2022-12-29T09:34:29.189Z,1.48
2022-12-29T09:37:14.611Z,1.67
2022-12-29T09:40:00.091Z,1.77
2022-12-29T09:42:53.593Z,2.15
2022-12-29T09:45:46.424Z,2.00
2022-12-29T09:48:37.690Z,1.33
2022-12-29T09:54:22.251Z,1.77
2022-12-29T09:57:16.624Z,1.60
2022-12-29T10:00:14.719Z,1.30
2022-12-29T10:03:17.221Z,1.55
2022-12-29T10:06:08.501Z,1.50
2022-12-29T10:09:02.463Z,1.25
2022-12-29T10:12:28.340Z,1.55
2022-12-29T10:15:41.043Z,2.13
2022-12-29T10:19:03.813Z,2.45
2022-12-29T10:22:00.574Z,2.60
2022-12-29T10:24:49.512Z,1.90
2022-12-29T10:27:35.858Z,3.40
2022-12-29T10:30:21.765Z,2.90
2022-12-29T10:33:12.509Z,1.95
2022-12-29T10:35:58.167Z,1.90
2022-12-29T10:39:02.858Z,1.58
2022-12-29T10:41:54.103Z,1.50
2022-12-29T10:44:39.753Z,1.30
2022-12-29T10:47:30.193Z,2.95
2022-12-29T10:50:15.693Z,1.27
2022-12-29T10:53:05.668Z,1.08
2022-12-29T10:55:51.332Z,1.80
2022-12-29T10:58:37.904Z,1.20
2022-12-29T11:01:26.278Z,1.27
2022-12-29T11:04:32.720Z,1.40
2022-12-29T11:07:26.647Z,1.30
2022-12-29T11:10:41.959Z,1.25
2022-12-29T11:13:35.027Z,1.60
2022-12-29T11:16:35.338Z,1.30
2022-12-29T11:19:26.741Z,1.20
2022-12-29T11:22:26.610Z,1.38
2022-12-29T11:25:13.731Z,1.23
2022-12-29T11:28:15.262Z,1.23
2022-12-29T11:31:02.526Z,1.20
2022-12-29T11:33:47.467Z,1.40
2022-12-29T11:36:35.375Z,1.20
2022-12-29T11:39:25.314Z,1.20
2022-12-29T11:42:20.477Z,1.30
2022-12-29T11:45:21.499Z,1.15
2022-12-29T11:48:17.771Z,1.77
2022-12-29T11:51:03.226Z,1.45
2022-12-29T11:53:52.534Z,1.58
2022-12-29T11:56:42.159Z,1.60
2022-12-29T11:59:39.287Z,1.70
2022-12-29T12:02:43.146Z,1.15
2022-12-29T12:05:36.566Z,1.40
2022-12-29T12:08:42.890Z,3.10
2022-12-29T12:11:37.841Z,1.17
2022-12-29T12:14:28.201Z,1.70
2022-12-29T12:17:18.961Z,1.35
2022-12-29T12:20:32.313Z,1.70
2022-12-29T12:23:41.612Z,1.42
2022-12-29T12:26:36.661Z,1.50
2022-12-29T12:29:44.303Z,1.20
2022-12-29T12:32:47.769Z,1.73
2022-12-29T12:35:44.855Z,1.55
2022-12-29T12:38:56.408Z,1.20
2022-12-29T12:42:14.621Z,1.40
2022-12-29T12:45:30.524Z,1.50
2022-12-29T12:48:40.887Z,1.35
2022-12-29T12:51:47.233Z,1.45
2022-12-29T12:54:53.988Z,1.60
2022-12-29T12:57:50.514Z,1.70
2022-12-29T13:01:25.333Z,1.50
2022-12-29T13:04:35.140Z,1.15
2022-12-29T13:07:50.901Z,1.67
2022-12-29T13:10:59.460Z,2.00
2022-12-29T13:14:17.050Z,1.63
2022-12-29T13:17:20.329Z,1.55
2022-12-29T13:20:23.461Z,2.03
2022-12-29T13:23:27.226Z,1.40
2022-12-29T13:26:29.808Z,1.42
2022-12-29T13:29:47.987Z,1.38
2022-12-29T13:32:51.801Z,1.60
2022-12-29T13:35:46.229Z,1.50
2022-12-29T13:38:43.957Z,2.13
2022-12-29T13:41:51.208Z,1.70
2022-12-29T13:44:43.625Z,1.27
2022-12-29T13:47:37.472Z,1.33
2022-12-29T13:50:26.357Z,1.40
2022-12-29T13:53:51.119Z,2.00
2022-12-29T13:57:03.753Z,1.90
2022-12-29T14:00:14.189Z,1.30
2022-12-29T14:03:45.537Z,1.38
2022-12-29T14:06:33.802Z,1.85
2022-12-29T14:09:38.064Z,1.15
2022-12-29T14:12:34.480Z,1.35
2022-12-29T14:15:26.286Z,1.20
2022-12-29T14:18:20.532Z,1.35
2022-12-29T14:21:18.779Z,1.98
2022-12-29T14:24:29.612Z,1.20
2022-12-29T14:27:14.727Z,1.25
2022-12-29T14:30:00.046Z,1.77
2022-12-29T14:33:03.755Z,1.48
2022-12-29T14:35:53.047Z,1.48
2022-12-29T14:38:46.891Z,1.50
2022-12-29T14:41:36.138Z,1.88
2022-12-29T14:44:21.918Z,2.08
2022-12-29T14:47:08.750Z,1.60
2022-12-29T14:49:55.087Z,1.15
2022-12-29T14:52:54.044Z,1.23
2022-12-29T14:55:47.716Z,1.30
2022-12-29T14:58:45.256Z,1.80
2022-12-29T15:01:33.756Z,1.80
2022-12-29T15:04:32.330Z,1.30
2022-12-29T15:07:19.545Z,1.33
2022-12-29T15:10:12.056Z,1.67
2022-12-29T15:13:04.113Z,1.98
2022-12-29T15:15:49.588Z,1.70
2022-12-29T15:18:35.071Z,1.85
2022-12-29T15:21:26.273Z,1.95
2022-12-29T15:24:12.060Z,1.70
2022-12-29T15:26:57.105Z,2.15
2022-12-29T15:29:45.364Z,1.45
2022-12-29T15:32:41.317Z,1.77
2022-12-29T15:35:36.331Z,1.45
2022-12-29T15:38:34.636Z,1.52
2022-12-29T15:42:07.279Z,1.77
2022-12-29T15:44:57.955Z,1.88
2022-12-29T15:47:50.997Z,2.25
2022-12-29T15:50:38.266Z,1.95
2022-12-29T15:53:34.553Z,2.05
2022-12-29T15:56:20.435Z,2.25
2022-12-29T15:59:05.796Z,2.00
2022-12-29T16:01:52.096Z,2.40
2022-12-29T16:04:54.368Z,2.38
2022-12-29T16:07:53.844Z,1.73
2022-12-29T16:10:42.602Z,1.90
2022-12-29T16:13:40.481Z,2.20
2022-12-29T16:16:32.779Z,1.60
2022-12-29T16:19:34.854Z,2.00
2022-12-29T16:22:44.720Z,1.80
2022-12-29T16:25:35.325Z,2.25
2022-12-29T16:28:26.191Z,1.85
2022-12-29T16:31:25.347Z,2.00
2022-12-29T16:34:26.513Z,2.55
2022-12-29T16:37:35.151Z,3.50
2022-12-29T16:40:31.257Z,2.45
2022-12-29T16:43:42.577Z,2.63
2022-12-29T16:46:30.262Z,2.42
2022-12-29T16:49:23.872Z,2.67
2022-12-29T16:52:14.744Z,4.35
2022-12-29T16:55:02.092Z,4.00
2022-12-29T16:57:49.947Z,5.97
2022-12-29T17:00:37.300Z,3.28
2022-12-29T17:03:23.892Z,2.50
2022-12-29T17:06:19.785Z,2.72
2022-12-29T17:09:27.543Z,3.20
2022-12-29T17:12:18.267Z,3.55
2022-12-29T17:15:13.494Z,3.72
2022-12-29T17:18:00.661Z,4.05
2022-12-29T17:20:46.042Z,4.53
2022-12-29T17:23:33.480Z,5.07
2022-12-29T17:26:18.532Z,1.70
2022-12-29T17:29:04.222Z,1.20
2022-12-29T17:31:49.527Z,0.90
2022-12-29T17:34:34.903Z,0.95
2022-12-29T17:37:36.029Z,0.82
2022-12-29T17:40:27.792Z,0.90
2022-12-29T17:43:14.965Z,1.00
2022-12-29T17:46:00.407Z,0.90
2022-12-29T17:48:51.480Z,1.17
2022-12-29T17:51:38.485Z,1.42
2022-12-29T17:54:26.240Z,0.90
2022-12-29T17:57:14.674Z,0.80
2022-12-29T17:59:59.966Z,0.70
2022-12-29T18:02:45.735Z,0.93
2022-12-29T18:05:31.511Z,1.10
2022-12-29T18:08:16.655Z,1.20
2022-12-29T18:11:02.592Z,1.00
2022-12-29T18:13:47.626Z,1.92
2022-12-29T18:16:33.260Z,1.50
2022-12-29T18:19:18.554Z,1.70
2022-12-29T18:22:04.225Z,1.33
2022-12-29T18:24:49.820Z,1.27
2022-12-29T18:27:35.154Z,0.82
2022-12-29T18:30:20.737Z,1.33
2022-12-29T18:33:05.987Z,1.20
2022-12-29T18:36:00.055Z,1.10
2022-12-29T18:38:45.406Z,1.00
2022-12-29T18:41:30.729Z,0.90
2022-12-29T18:44:15.959Z,0.82
2022-12-29T18:47:01.548Z,0.82
2022-12-29T18:49:47.176Z,0.90
2022-12-29T18:52:32.492Z,0.80
2022-12-29T18:55:23.343Z,0.90
2022-12-29T18:58:08.746Z,0.90
2022-12-29T19:00:54.506Z,1.00
2022-12-29T19:03:39.981Z,3.13
2022-12-29T19:06:25.564Z,2.63
2022-12-29T19:09:10.975Z,4.80
2022-12-29T19:11:56.332Z,3.90
2022-12-29T19:14:42.024Z,2.53
2022-12-29T19:17:27.645Z,2.80
2022-12-29T19:20:26.965Z,2.33
2022-12-29T19:23:15.627Z,2.40
2022-12-29T19:26:01.151Z,1.83
2022-12-29T19:28:46.595Z,1.75
2022-12-29T19:31:31.959Z,1.80
2022-12-29T19:34:17.663Z,2.25
2022-12-29T19:37:03.156Z,2.70
2022-12-29T19:39:48.635Z,2.00
2022-12-29T19:42:33.876Z,2.38
2022-12-29T19:45:20.445Z,3.65
2022-12-29T19:48:06.885Z,4.82
2022-12-29T19:50:51.878Z,3.13
2022-12-29T19:53:37.756Z,1.80
2022-12-29T19:56:23.360Z,1.35
2022-12-29T19:59:08.524Z,2.10
2022-12-29T20:01:54.080Z,1.63
2022-12-29T20:04:39.211Z,1.40
2022-12-29T20:07:25.163Z,1.73
2022-12-29T20:10:10.303Z,1.80
2022-12-29T20:12:55.830Z,1.52
2022-12-29T20:15:44.041Z,1.67
2022-12-29T20:18:30.253Z,2.97
2022-12-29T20:21:21.690Z,1.92
2022-12-29T20:24:07.020Z,2.10
2022-12-29T20:26:53.138Z,2.53
2022-12-29T20:29:40.336Z,1.60
2022-12-29T20:32:25.682Z,1.52
2022-12-29T20:35:12.883Z,1.30
2022-12-29T20:37:58.398Z,1.70
2022-12-29T20:40:46.946Z,1.52
2022-12-29T20:43:32.235Z,1.67
2022-12-29T20:46:21.357Z,1.50
2022-12-29T20:49:08.005Z,1.23
2022-12-29T20:52:06.170Z,1.50
2022-12-29T20:54:52.547Z,1.73
2022-12-29T20:58:05.569Z,2.05
2022-12-29T21:00:44.324Z,1.55
2022-12-29T21:03:29.547Z,1.85
2022-12-29T21:06:16.423Z,2.05
2022-12-29T21:09:02.234Z,1.80
2022-12-29T21:11:48.393Z,2.47
2022-12-29T21:14:34.802Z,1.75
2022-12-29T21:17:20.539Z,1.95
2022-12-29T21:20:10.618Z,2.30
2022-12-29T21:22:57.101Z,1.73
2022-12-29T21:25:44.118Z,1.77
2022-12-29T21:28:29.386Z,1.65
2022-12-29T21:31:33.522Z,1.52
2022-12-29T21:34:18.564Z,1.40
2022-12-29T21:37:03.873Z,2.17
2022-12-29T21:39:49.352Z,1.90
2022-12-29T21:42:34.666Z,1.90
2022-12-29T21:45:25.989Z,2.30
2022-12-29T21:48:28.675Z,2.80
2022-12-29T21:51:32.822Z,3.17
2022-12-29T21:54:45.688Z,4.30
2022-12-29T21:57:49.512Z,3.63
2022-12-29T22:00:53.396Z,3.90
2022-12-29T22:03:57.582Z,3.92
2022-12-29T22:07:01.492Z,2.67
2022-12-29T22:10:05.372Z,2.65
2022-12-29T22:13:05.644Z,2.65
2022-12-29T22:15:51.031Z,2.20
2022-12-29T22:18:37.289Z,2.72
2022-12-29T22:21:22.667Z,2.85
2022-12-29T22:24:08.786Z,2.95
2022-12-29T22:26:53.988Z,2.70
2022-12-29T22:29:41.001Z,2.25
2022-12-29T22:32:26.353Z,2.80
2022-12-29T22:35:12.931Z,2.83
2022-12-29T22:37:58.127Z,2.88
2022-12-29T22:40:43.460Z,2.35
2022-12-29T22:43:30.005Z,2.60
2022-12-29T22:46:15.374Z,2.60
2022-12-29T22:49:00.655Z,2.40
2022-12-29T22:51:46.023Z,2.38
2022-12-29T22:54:31.873Z,2.50
2022-12-29T22:57:17.217Z,2.05
2022-12-29T23:00:06.674Z,1.88
2022-12-29T23:02:52.226Z,2.45
2022-12-29T23:05:38.129Z,1.90
2022-12-29T23:08:23.241Z,2.20
2022-12-29T23:11:11.872Z,2.03
2022-12-29T23:13:57.440Z,2.00
2022-12-29T23:16:44.008Z,2.33
2022-12-29T23:19:29.342Z,2.03
2022-12-29T23:22:14.920Z,2.20
2022-12-29T23:25:00.000Z,2.15
2022-12-29T23:27:45.301Z,2.00
2022-12-29T23:30:31.120Z,1.75
2022-12-29T23:33:16.124Z,2.13
2022-12-29T23:36:01.369Z,2.45
2022-12-29T23:38:46.883Z,2.05
2022-12-29T23:41:32.341Z,2.25
2022-12-29T23:44:17.823Z,1.80
2022-12-29T23:47:03.046Z,1.73
2022-12-29T23:49:48.414Z,2.13
2022-12-29T23:52:33.705Z,2.03
2022-12-29T23:55:19.236Z,2.17
2022-12-29T23:58:04.535Z,2.00
